Time;durP1;ratioP1;P1;durP2;ratioP2;P2;SDS_P1;SDS_P2;PMS_P1;PMS_P2;Temp;Humidity;BMP_temperature;BMP_pressure;BME280_temperature;BME280_humidity;BME280_pressure;Samples;Min_cycle;Max_cycle;Signal;HPM_P1;HPM_P2
2022/02/06 00:01:09;;;;;;;22.30;10.10;;;;;;;-1.66;56.80;98384.25;4977324;28;20035;-88
2022/02/06 00:03:35;;;;;;;22.85;10.73;;;;;;;-1.69;56.91;98379.13;4975544;28;20042;-87
2022/02/06 00:06:02;;;;;;;23.33;10.52;;;;;;;-1.74;58.02;98381.97;4991909;28;20051;-87
2022/02/06 00:08:28;;;;;;;22.80;10.13;;;;;;;-1.84;58.31;98384.19;4974955;28;20050;-88
2022/02/06 00:10:53;;;;;;;19.95;10.52;;;;;;;-1.77;58.35;98382.97;4975865;28;20137;-88
2022/02/06 00:13:20;;;;;;;20.52;10.32;;;;;;;-1.77;58.44;98377.75;4960635;28;20047;-86
2022/02/06 00:15:47;;;;;;;21.08;10.00;;;;;;;-1.97;59.36;98362.91;4980818;28;20048;-87
2022/02/06 00:18:13;;;;;;;23.23;10.60;;;;;;;-2.10;60.26;98355.69;4981200;28;20042;-86
2022/02/06 00:20:51;;;;;;;23.65;11.20;;;;;;;-2.03;59.39;98354.47;4984949;28;20103;-88
2022/02/06 00:23:19;;;;;;;22.77;10.90;;;;;;;-2.02;59.87;98377.16;4978230;28;20174;-91
2022/02/06 00:30:54;;;;;;;23.60;12.48;;;;;;;-2.03;60.08;98375.41;4990585;28;20076;-86
2022/02/06 00:33:36;;;;;;;24.67;12.88;;;;;;;-2.00;60.41;98375.28;4988601;28;20062;-85
2022/02/06 00:39:05;;;;;;;27.67;14.15;;;;;;;-2.02;60.57;98383.22;4975278;28;20045;-86
2022/02/06 00:41:35;;;;;;;24.17;12.45;;;;;;;-2.20;61.18;98368.31;4975302;28;20046;-88
2022/02/06 00:44:03;;;;;;;25.23;12.48;;;;;;;-2.12;60.66;98365.38;4973744;28;20047;-89
2022/02/06 00:46:30;;;;;;;24.65;12.80;;;;;;;-1.96;60.77;98380.34;4974951;28;20126;-84
2022/02/06 00:48:59;;;;;;;25.75;12.50;;;;;;;-1.77;60.04;98362.03;4974705;28;20043;-87
2022/02/06 00:51:36;;;;;;;31.17;14.20;;;;;;;-1.69;60.01;98363.41;5002991;28;20043;-88
2022/02/06 00:54:02;;;;;;;25.88;12.60;;;;;;;-1.60;59.85;98368.25;4965203;28;20110;-84
2022/02/06 00:56:29;;;;;;;35.13;14.82;;;;;;;-1.60;59.89;98349.91;4998316;28;20043;-85
2022/02/06 00:58:55;;;;;;;30.48;15.15;;;;;;;-1.48;59.70;98372.91;5000137;28;20046;-87
2022/02/06 01:01:21;;;;;;;32.20;13.90;;;;;;;-1.44;59.68;98365.75;4975061;28;20414;-87
2022/02/06 01:03:47;;;;;;;24.10;12.75;;;;;;;-1.36;59.52;98372.31;4973811;28;20399;-87
2022/02/06 01:06:13;;;;;;;26.85;12.40;;;;;;;-1.30;59.44;98365.97;4957394;28;20050;-87
2022/02/06 01:08:40;;;;;;;23.63;11.77;;;;;;;-1.25;58.87;98364.81;4973149;28;20086;-87
2022/02/06 01:11:09;;;;;;;25.85;12.73;;;;;;;-1.29;59.21;98360.63;4973218;28;20051;-87
2022/02/06 01:16:15;;;;;;;25.15;12.05;;;;;;;-1.38;58.78;98368.94;4991940;28;20039;-88
2022/02/06 01:18:57;;;;;;;23.48;12.00;;;;;;;-1.36;58.83;98356.59;4975796;28;20051;-89
2022/02/06 01:23:59;;;;;;;28.17;12.45;;;;;;;-1.29;59.04;98359.78;4974289;28;20043;-89
2022/02/06 01:29:42;;;;;;;26.55;11.77;;;;;;;-1.36;59.09;98367.09;4972445;28;20057;-88
2022/02/06 01:32:13;;;;;;;26.65;12.73;;;;;;;-1.50;59.12;98370.38;4973990;28;20065;-89
2022/02/06 01:34:48;;;;;;;26.45;13.32;;;;;;;-1.56;59.40;98370.66;4956889;28;20495;-88
2022/02/06 01:37:33;;;;;;;27.17;12.43;;;;;;;-1.56;59.67;98367.19;4972823;28;20047;-87
2022/02/06 01:40:26;;;;;;;30.65;12.63;;;;;;;-1.59;59.25;98360.31;4973076;28;20053;-89
2022/02/06 01:43:00;;;;;;;22.73;10.75;;;;;;;-1.73;59.41;98368.81;4973389;28;20051;-87
2022/02/06 01:45:36;;;;;;;23.75;11.02;;;;;;;-1.94;59.64;98363.72;4989940;28;20072;-88
2022/02/06 02:25:30;;;;;;;23.30;10.10;;;;;;;-2.08;59.65;98346.84;4980221;28;20097;-89
2022/02/06 02:28:31;;;;;;;19.92;10.70;;;;;;;-1.95;59.19;98352.38;4983573;28;20046;-90
2022/02/06 02:49:37;;;;;;;20.70;11.07;;;;;;;-1.66;58.85;98353.66;4977255;28;20062;-83
2022/02/06 02:52:09;;;;;;;23.92;9.55;;;;;;;-1.66;58.66;98352.81;4979646;28;20071;-93
2022/02/06 02:54:37;;;;;;;23.98;11.85;;;;;;;-1.57;58.66;98358.47;4997411;28;20050;-93
2022/02/06 02:57:14;;;;;;;24.95;11.52;;;;;;;-1.54;58.38;98352.25;4963785;28;20046;-91
2022/02/06 03:00:00;;;;;;;25.17;11.13;;;;;;;-1.56;58.42;98354.94;4980908;28;20413;-91
2022/02/06 03:02:26;;;;;;;24.70;11.80;;;;;;;-1.54;58.86;98357.50;4985385;28;20401;-89
2022/02/06 03:04:56;;;;;;;23.48;11.68;;;;;;;-1.50;58.46;98365.13;4980691;28;20042;-89
2022/02/06 03:07:22;;;;;;;24.02;11.18;;;;;;;-1.46;58.42;98355.34;4980811;28;20076;-92
2022/02/06 03:09:49;;;;;;;25.67;11.45;;;;;;;-1.43;58.50;98354.34;4997169;28;20094;-90
2022/02/06 03:12:18;;;;;;;27.70;12.18;;;;;;;-1.37;58.26;98352.28;4996802;28;20042;-86
2022/02/06 03:14:51;;;;;;;21.05;10.52;;;;;;;-1.38;58.24;98350.59;4979017;28;20057;-87
2022/02/06 03:17:32;;;;;;;19.85;10.30;;;;;;;-1.32;58.14;98360.78;4996299;28;20049;-86
2022/02/06 03:20:06;;;;;;;25.25;11.70;;;;;;;-1.29;58.05;98358.00;4980320;28;20045;-89
2022/02/06 03:22:54;;;;;;;24.75;11.23;;;;;;;-1.19;58.17;98362.84;4950967;28;20052;-90
2022/02/06 03:25:22;;;;;;;20.45;10.85;;;;;;;-1.23;58.05;98351.63;4973355;28;20077;-89
2022/02/06 03:27:48;;;;;;;25.83;11.80;;;;;;;-1.10;57.97;98367.63;4950018;28;20038;-88
2022/02/06 03:30:14;;;;;;;28.92;11.27;;;;;;;-1.09;57.35;98353.56;4994959;28;20136;-89
2022/02/06 03:32:40;;;;;;;22.77;11.38;;;;;;;-1.04;57.46;98359.47;4995135;28;20402;-89
2022/02/06 03:35:06;;;;;;;24.85;11.48;;;;;;;-0.99;57.78;98360.06;4994615;28;20533;-87
2022/02/06 03:37:32;;;;;;;27.15;11.35;;;;;;;-0.92;57.27;98365.88;4979822;28;20568;-88
2022/02/06 03:40:01;;;;;;;25.77;11.93;;;;;;;-0.89;57.27;98360.50;4998268;28;20073;-89
2022/02/06 03:42:34;;;;;;;21.63;11.38;;;;;;;-0.91;57.09;98347.44;5017969;28;20441;-85
2022/02/06 03:45:06;;;;;;;26.33;11.65;;;;;;;-0.85;56.94;98360.25;5010466;28;20124;-88
2022/02/06 03:47:52;;;;;;;24.10;12.02;;;;;;;-0.83;56.90;98362.78;4997655;28;20501;-89
2022/02/06 03:50:18;;;;;;;29.83;13.70;;;;;;;-0.89;56.83;98365.72;5010425;28;20050;-85
2022/02/06 03:52:48;;;;;;;34.42;12.25;;;;;;;-0.85;57.11;98359.41;5003298;28;20046;-88
2022/02/06 03:55:20;;;;;;;25.90;11.95;;;;;;;-0.86;56.99;98355.94;4981177;28;20129;-86
2022/02/06 03:57:47;;;;;;;37.13;14.85;;;;;;;-0.85;57.00;98352.38;4981910;28;20046;-86
2022/02/06 04:00:14;;;;;;;26.80;13.55;;;;;;;-0.85;57.40;98360.25;5000450;28;20089;-84
2022/02/06 04:02:41;;;;;;;32.15;14.73;;;;;;;-0.85;57.23;98360.25;4954080;28;20141;-86
2022/02/06 04:05:07;;;;;;;30.10;14.63;;;;;;;-0.85;57.05;98357.63;5005825;28;20046;-85
2022/02/06 04:07:33;;;;;;;35.17;14.20;;;;;;;-0.81;57.45;98363.56;4964384;28;20498;-82
2022/02/06 04:09:59;;;;;;;28.35;13.30;;;;;;;-0.81;56.99;98353.94;4982377;28;20516;-87
2022/02/06 04:12:26;;;;;;;33.05;14.57;;;;;;;-0.83;57.31;98362.78;4990195;28;20054;-82
2022/02/06 04:17:22;;;;;;;30.17;14.10;;;;;;;-0.74;57.02;98363.19;4984103;28;20121;-82
2022/02/06 04:19:48;;;;;;;33.35;15.43;;;;;;;-0.75;57.21;98363.28;4972757;28;20046;-83
2022/02/06 04:22:14;;;;;;;49.60;15.40;;;;;;;-0.73;56.80;98359.63;4986336;28;20101;-83
2022/02/06 04:24:39;;;;;;;39.80;15.57;;;;;;;-0.65;56.73;98374.16;4981153;28;20068;-84
2022/02/06 04:27:06;;;;;;;35.10;15.55;;;;;;;-0.61;56.61;98360.78;4969900;28;20057;-82
2022/02/06 04:29:32;;;;;;;34.78;17.25;;;;;;;-0.57;56.56;98366.75;4972304;28;20101;-82
2022/02/06 04:31:59;;;;;;;36.58;15.80;;;;;;;-0.57;56.63;98353.63;4977378;28;20052;-84
2022/02/06 04:34:25;;;;;;;60.65;19.17;;;;;;;-0.55;56.71;98360.50;5002455;28;20078;-88
2022/02/06 05:22:22;;;;;;;40.42;20.55;;;;;;;-0.71;56.59;98363.94;4965372;28;20046;-88
2022/02/06 05:32:38;;;;;;;40.25;18.75;;;;;;;-0.56;55.84;98363.22;4998657;28;20057;-93
2022/02/06 05:35:07;;;;;;;34.13;17.88;;;;;;;-0.51;55.61;98369.06;4998594;28;20053;-91
2022/02/06 05:37:33;;;;;;;;;;;;;;;-0.45;55.81;98381.88;4999213;28;20046;-91
2022/02/06 05:39:59;;;;;;;38.65;19.35;;;;;;;-0.42;55.46;98373.00;4981400;28;19917;-89
2022/02/06 05:42:25;;;;;;;39.03;20.17;;;;;;;-0.46;55.14;98388.03;4997040;28;20137;-91
2022/02/06 05:44:55;;;;;;;38.10;20.58;;;;;;;-0.40;55.04;98385.13;4964560;28;20046;-91
2022/02/06 05:47:22;;;;;;;34.63;18.63;;;;;;;-0.43;55.23;98377.41;4981061;28;20142;-91
2022/02/06 05:49:48;;;;;;;35.92;16.70;;;;;;;-0.34;54.10;98376.94;4996864;28;20536;-88
2022/02/06 05:52:16;;;;;;;32.47;15.90;;;;;;;-0.37;54.19;98369.22;4996446;28;20045;-88
2022/02/06 05:54:41;;;;;;;33.50;15.40;;;;;;;-0.30;54.12;98378.47;4996507;28;20129;-88
2022/02/06 05:57:08;;;;;;;36.05;15.52;;;;;;;-0.31;53.47;98378.53;4980300;28;20438;-91
2022/02/06 05:59:33;;;;;;;26.80;13.60;;;;;;;-0.26;53.71;98382.66;4996567;28;20081;-90
2022/02/06 06:02:00;;;;;;;32.88;13.65;;;;;;;-0.30;53.02;98381.09;4997887;28;20129;-89
2022/02/06 06:04:26;;;;;;;43.55;13.52;;;;;;;-0.21;52.97;98371.03;4997742;28;20081;-91
2022/02/06 06:06:52;;;;;;;30.63;14.85;;;;;;;-0.19;53.08;98363.91;4980445;28;20445;-88
2022/02/06 06:09:18;;;;;;;39.25;14.32;;;;;;;-0.09;52.33;98378.28;5012920;28;20053;-89
2022/02/06 06:11:44;;;;;;;37.08;14.98;;;;;;;-0.09;52.06;98378.28;4980671;28;20066;-86
2022/02/06 06:14:10;;;;;;;32.28;14.20;;;;;;;0.02;52.19;98381.19;5001897;28;20042;-89
2022/02/06 06:16:36;;;;;;;30.48;14.70;;;;;;;-0.07;51.52;98379.91;5010599;28;20046;-90
2022/02/06 06:19:02;;;;;;;35.45;13.98;;;;;;;-0.24;51.93;98369.41;4999087;28;20073;-86
2022/02/06 06:21:34;;;;;;;45.00;14.38;;;;;;;-0.09;52.21;98383.53;4977053;28;20042;-82
2022/02/06 06:24:00;;;;;;;31.02;14.23;;;;;;;0.03;51.79;98388.13;4980289;28;20052;-82
2022/02/06 06:26:29;;;;;;;35.22;13.65;;;;;;;0.04;51.21;98387.22;4982481;28;20094;-86
2022/02/06 06:28:55;;;;;;;30.80;13.82;;;;;;;0.28;51.16;98387.69;4998013;28;20050;-87
2022/02/06 06:31:21;;;;;;;30.92;14.50;;;;;;;0.38;50.65;98377.56;4979664;28;20057;-92
2022/02/06 06:33:47;;;;;;;36.47;14.52;;;;;;;0.48;50.57;98395.34;4952448;28;20050;-85
2022/02/06 06:36:13;;;;;;;25.75;13.80;;;;;;;0.40;50.01;98399.34;4965728;28;20046;-86
2022/02/06 06:38:39;;;;;;;31.27;13.65;;;;;;;0.38;50.89;98393.31;4976654;28;20050;-82
2022/02/06 06:41:05;;;;;;;28.80;14.52;;;;;;;0.44;50.53;98399.06;5007753;28;20049;-88
2022/02/06 06:43:31;;;;;;;35.10;15.35;;;;;;;0.43;50.23;98389.50;4983427;28;20053;-90
2022/02/06 06:45:59;;;;;;;37.45;15.57;;;;;;;0.42;50.22;98389.59;5019909;28;20045;-85
2022/02/06 06:48:25;;;;;;;37.45;16.80;;;;;;;0.59;50.41;98397.41;4980489;28;20062;-84
2022/02/06 06:50:50;;;;;;;34.55;14.60;;;;;;;0.62;49.31;98391.97;5002664;28;20065;-88
2022/02/06 06:53:17;;;;;;;35.97;15.82;;;;;;;0.58;49.45;98390.44;5020360;28;20066;-87
2022/02/06 06:55:45;;;;;;;35.88;16.42;;;;;;;0.54;49.69;98388.94;5018045;28;20061;-93
2022/02/06 07:00:54;;;;;;;35.00;16.63;;;;;;;0.44;49.77;98383.31;4952339;28;20042;-90
2022/02/06 07:03:22;;;;;;;35.53;16.38;;;;;;;0.47;49.46;98387.56;4971687;28;20049;-90
2022/02/06 07:05:48;;;;;;;37.47;16.88;;;;;;;0.36;50.03;98374.16;4993088;28;20069;-87
2022/02/06 07:08:16;;;;;;;38.28;16.20;;;;;;;0.49;50.28;98393.59;4993464;28;20061;-89
2022/02/06 07:10:43;;;;;;;31.98;16.17;;;;;;;0.51;50.05;98389.09;5018133;28;20457;-93
2022/02/06 07:13:08;;;;;;;32.42;16.48;;;;;;;0.58;49.99;98385.19;4982978;28;20058;-91
2022/02/06 07:15:34;;;;;;;32.70;16.65;;;;;;;0.60;50.37;98382.47;5021336;28;20046;-92
2022/02/06 07:18:00;;;;;;;35.97;17.20;;;;;;;0.66;49.83;98392.66;4998176;28;20106;-93
2022/02/06 07:20:26;;;;;;;35.58;17.08;;;;;;;0.70;50.18;98384.50;4996393;28;20049;-91
2022/02/06 07:22:54;;;;;;;38.30;17.90;;;;;;;0.82;50.12;98379.50;4996835;28;20054;-94
2022/02/06 07:25:20;;;;;;;39.40;19.70;;;;;;;0.37;50.64;98386.34;4980154;28;20045;-90
2022/02/06 07:27:49;;;;;;;35.15;18.30;;;;;;;0.63;50.94;98384.94;4980692;28;20054;-90
2022/02/06 07:30:16;;;;;;;36.67;19.42;;;;;;;1.08;51.13;98373.63;4979833;28;20050;-84
2022/02/06 07:32:43;;;;;;;35.70;18.35;;;;;;;1.62;50.10;98384.53;4980227;28;20050;-89
2022/02/06 07:35:10;;;;;;;37.08;18.98;;;;;;;1.82;49.29;98374.59;4995066;28;20050;-91
2022/02/06 07:37:44;;;;;;;30.75;15.75;;;;;;;1.66;48.39;98379.94;4963172;28;20069;-92
2022/02/06 07:40:11;;;;;;;41.60;13.90;;;;;;;1.74;48.65;98376.84;4999757;28;20046;-86
2022/02/06 07:42:37;;;;;;;23.00;10.60;;;;;;;1.81;47.81;98383.44;4994465;28;20498;-86
2022/02/06 07:45:10;;;;;;;17.40;10.18;;;;;;;1.66;48.20;98386.06;4993243;28;20077;-88
2022/02/06 07:47:38;;;;;;;22.42;10.23;;;;;;;1.43;48.19;98376.03;4966779;28;20038;-86
2022/02/06 07:50:06;;;;;;;17.08;9.05;;;;;;;1.65;48.74;98394.88;4978526;28;20470;-86
2022/02/06 07:52:32;;;;;;;21.30;10.27;;;;;;;1.92;47.45;98386.28;4978502;28;20053;-86
2022/02/06 07:54:58;;;;;;;21.30;11.15;;;;;;;2.17;47.52;98383.84;4994522;28;20049;-87
2022/02/06 07:57:25;;;;;;;25.25;11.35;;;;;;;2.56;46.11;98382.34;4966231;28;20050;-86
2022/02/06 08:00:02;;;;;;;21.33;11.48;;;;;;;2.74;45.61;98367.09;4949993;28;20054;-86
2022/02/06 08:02:38;;;;;;;20.55;11.02;;;;;;;2.96;43.78;98390.34;4979621;28;20070;-85
2022/02/06 08:05:05;;;;;;;23.70;10.95;;;;;;;3.20;44.24;98387.06;4978152;28;20053;-85
2022/02/06 08:07:32;;;;;;;24.20;11.05;;;;;;;3.46;43.90;98388.84;4970137;28;20513;-83
2022/02/06 08:10:00;;;;;;;23.40;10.48;;;;;;;3.39;42.61;98377.00;4981209;28;20050;-84
2022/02/06 08:12:32;;;;;;;24.67;11.63;;;;;;;3.31;43.28;98379.28;4971134;28;20046;-86
2022/02/06 08:15:00;;;;;;;21.77;10.45;;;;;;;3.46;42.68;98378.28;4968001;28;20541;-86
2022/02/06 08:17:27;;;;;;;22.58;11.15;;;;;;;3.22;42.45;98379.88;4998891;28;20136;-83
2022/02/06 08:19:54;;;;;;;26.40;10.23;;;;;;;3.26;42.63;98386.66;4961139;28;20568;-86
2022/02/06 08:22:20;;;;;;;19.02;9.98;;;;;;;3.16;42.28;98389.91;4977428;28;20046;-86
2022/02/06 08:24:47;;;;;;;24.00;10.27;;;;;;;2.70;43.08;98388.50;4977905;28;20042;-87
2022/02/06 08:27:13;;;;;;;22.55;10.07;;;;;;;2.58;43.57;98385.69;5009971;28;20046;-86
2022/02/06 08:29:43;;;;;;;23.08;10.40;;;;;;;2.50;44.18;98387.13;4962756;28;20042;-86
2022/02/06 08:32:09;;;;;;;;;;;;;;;2.53;43.91;98382.53;4962177;28;20452;-86
2022/02/06 08:34:35;;;;;;;23.48;9.43;;;;;;;2.39;43.71;98383.38;4961301;28;19918;-90
2022/02/06 08:37:04;;;;;;;19.02;10.40;;;;;;;2.40;43.99;98376.28;4945575;28;20069;-86
2022/02/06 08:39:31;;;;;;;19.65;10.20;;;;;;;2.61;43.89;98385.50;4978546;28;20141;-86
2022/02/06 08:41:58;;;;;;;28.27;10.50;;;;;;;2.42;43.14;98384.97;4945518;28;20049;-86
2022/02/06 08:44:24;;;;;;;24.77;9.82;;;;;;;2.28;44.26;98390.25;4996154;28;20031;-86
2022/02/06 08:46:50;;;;;;;20.98;9.48;;;;;;;2.05;44.00;98381.97;4947028;28;20145;-85
2022/02/06 08:49:20;;;;;;;21.77;9.73;;;;;;;2.34;44.11;98376.69;4944630;28;20096;-82
2022/02/06 08:51:46;;;;;;;20.65;9.52;;;;;;;2.46;43.65;98375.09;4961180;28;20054;-83
2022/02/06 08:54:13;;;;;;;36.40;17.23;;;;;;;2.64;43.46;98379.22;4976766;28;20513;-83
2022/02/06 08:56:40;;;;;;;20.88;11.00;;;;;;;2.56;43.14;98382.34;4929588;28;20038;-80
2022/02/06 08:59:10;;;;;;;27.25;10.88;;;;;;;1.93;43.55;98377.44;4977014;28;20493;-87
2022/02/06 09:01:36;;;;;;;25.63;10.75;;;;;;;1.94;44.04;98365.94;4961402;28;20045;-85
2022/02/06 09:04:04;;;;;;;23.08;10.73;;;;;;;1.89;43.71;98366.22;4967502;28;20090;-82
2022/02/06 09:06:31;;;;;;;21.42;10.50;;;;;;;1.85;43.78;98364.72;4982859;28;20047;-83
2022/02/06 09:08:59;;;;;;;24.73;11.55;;;;;;;1.74;43.65;98371.56;4968933;28;20050;-82
2022/02/06 09:11:26;;;;;;;26.70;12.55;;;;;;;1.57;43.26;98377.81;4979063;28;20049;-88
2022/02/06 09:13:53;;;;;;;30.00;12.40;;;;;;;1.39;43.60;98367.44;4959913;28;20077;-85
2022/02/06 09:16:19;;;;;;;29.27;13.25;;;;;;;1.48;44.32;98368.69;4992003;28;20174;-90
2022/02/06 09:18:45;;;;;;;28.65;13.95;;;;;;;1.61;44.71;98372.28;4943652;28;20057;-83
2022/02/06 09:21:11;;;;;;;33.13;13.90;;;;;;;1.86;43.85;98360.28;4943834;28;20596;-86
2022/02/06 09:23:37;;;;;;;25.15;13.55;;;;;;;1.91;43.48;98363.50;4992186;28;20050;-85
2022/02/06 09:26:03;;;;;;;32.30;11.40;;;;;;;1.92;43.39;98355.50;4991994;28;20049;-84
2022/02/06 09:28:29;;;;;;;29.42;11.52;;;;;;;1.89;43.47;98357.47;4976589;28;20050;-83
2022/02/06 09:30:55;;;;;;;24.35;11.52;;;;;;;1.80;43.85;98355.38;4976257;28;20046;-82
2022/02/06 09:35:47;;;;;;;28.58;12.68;;;;;;;1.41;44.25;98364.72;4976032;28;20038;-82
2022/02/06 09:38:13;;;;;;;30.25;14.63;;;;;;;1.32;44.26;98370.53;4975813;28;20089;-82
2022/02/06 09:40:39;;;;;;;31.08;13.93;;;;;;;1.10;43.88;98370.91;4975864;28;20042;-84
2022/02/06 09:43:05;;;;;;;31.00;14.45;;;;;;;0.95;44.24;98362.09;4976166;28;20409;-83
2022/02/06 09:45:33;;;;;;;30.83;12.90;;;;;;;0.78;44.87;98356.94;4959777;28;20070;-83
2022/02/06 09:48:02;;;;;;;32.17;13.70;;;;;;;0.58;45.16;98368.56;4976466;28;20042;-82
2022/02/06 09:50:29;;;;;;;34.08;12.45;;;;;;;0.54;45.68;98375.78;4976135;28;20482;-84
2022/02/06 09:52:55;;;;;;;23.88;11.77;;;;;;;0.71;45.80;98370.44;4961550;28;20050;-83
2022/02/06 09:55:22;;;;;;;23.00;12.27;;;;;;;1.04;45.43;98366.84;4960349;28;20116;-84
2022/02/06 09:58:16;;;;;;;34.72;13.63;;;;;;;1.00;44.97;98373.22;4991820;28;20073;-82
2022/02/06 10:00:43;;;;;;;106.85;47.33;;;;;;;1.12;45.37;98369.03;4976266;28;20034;-82
2022/02/06 10:03:13;;;;;;;30.50;13.27;;;;;;;1.26;45.22;98365.59;4947689;28;20050;-83
2022/02/06 10:05:41;;;;;;;24.63;11.57;;;;;;;1.20;45.52;98365.03;4945351;28;20062;-81
2022/02/06 10:08:43;;;;;;;28.10;10.65;;;;;;;1.14;45.37;98362.75;4994652;28;20042;-83
2022/02/06 10:11:16;;;;;;;25.95;11.85;;;;;;;1.13;44.91;98357.56;4923933;29;20502;-82
2022/02/06 10:13:42;;;;;;;22.73;11.70;;;;;;;1.30;45.23;98353.97;4970300;28;20054;-83
2022/02/06 10:16:14;;;;;;;28.55;11.95;;;;;;;1.41;44.92;98372.63;4980026;28;20042;-83
2022/02/06 10:18:40;;;;;;;29.13;11.68;;;;;;;1.32;45.04;98365.25;4964002;28;20081;-83
2022/02/06 10:21:08;;;;;;;28.95;11.77;;;;;;;1.37;44.75;98369.31;4980146;28;20042;-83
2022/02/06 10:26:24;;;;;;;32.53;14.02;;;;;;;1.43;44.20;98378.66;4966518;28;20074;-82
2022/02/06 10:32:02;;;;;;;29.63;13.48;;;;;;;1.25;44.76;98387.63;4987626;28;20053;-82
2022/02/06 10:34:29;;;;;;;29.08;13.15;;;;;;;1.04;44.86;98387.88;5000973;28;20453;-84
2022/02/06 10:37:15;;;;;;;34.47;14.15;;;;;;;0.80;44.76;98390.13;4980859;28;20065;-83
2022/02/06 10:40:02;;;;;;;32.97;13.90;;;;;;;0.47;44.88;98398.91;4964074;28;20089;-84
2022/02/06 10:42:30;;;;;;;34.47;13.95;;;;;;;0.04;46.05;98403.00;4980432;28;20050;-86
2022/02/06 10:45:19;;;;;;;26.40;12.45;;;;;;;0.04;46.52;98405.63;4996627;28;20076;-82
2022/02/06 10:47:49;;;;;;;33.80;12.90;;;;;;;0.26;46.52;98415.84;4995334;28;20053;-83
2022/02/06 10:50:22;;;;;;;40.38;13.05;;;;;;;0.40;46.29;98402.81;4979293;28;20058;-84
2022/02/06 10:52:48;;;;;;;36.65;14.25;;;;;;;0.34;46.57;98405.78;4979369;28;20068;-82
2022/02/06 10:55:15;;;;;;;33.58;14.15;;;;;;;0.35;46.85;98398.75;4978850;28;20058;-83
2022/02/06 10:57:59;;;;;;;38.17;14.48;;;;;;;0.47;46.56;98404.19;4978316;28;20074;-90
2022/02/06 11:00:29;;;;;;;35.80;13.23;;;;;;;0.47;46.40;98400.69;4997381;28;20042;-86
2022/02/06 11:03:02;;;;;;;33.95;11.57;;;;;;;0.30;46.05;98408.63;4963328;28;20498;-86
2022/02/06 11:05:41;;;;;;;28.92;11.82;;;;;;;0.13;46.75;98410.38;4981552;28;20105;-88
2022/02/06 11:08:06;;;;;;;28.42;12.43;;;;;;;0.18;47.21;98412.75;4964714;28;20108;-85
2022/02/06 11:10:34;;;;;;;25.88;12.18;;;;;;;-0.04;47.22;98413.03;4963021;28;20089;-82
2022/02/06 11:13:04;;;;;;;30.67;13.05;;;;;;;-0.53;49.01;98399.78;4963619;28;20049;-88
2022/02/06 11:15:45;;;;;;;27.92;12.65;;;;;;;-0.67;49.82;98415.38;4995065;28;20497;-87
2022/02/06 11:18:14;;;;;;;30.63;12.68;;;;;;;-0.96;51.10;98411.56;4996439;28;20425;-85
2022/02/06 11:20:57;;;;;;;28.23;14.05;;;;;;;-0.87;50.17;98419.81;4994054;28;20042;-83
2022/02/06 11:23:24;;;;;;;39.63;14.00;;;;;;;-0.81;50.50;98410.81;4994535;28;20054;-79
2022/02/06 11:25:51;;;;;;;23.13;10.32;;;;;;;-0.95;50.04;98410.63;4995527;28;20078;-85
2022/02/06 11:28:17;;;;;;;26.38;12.43;;;;;;;-1.20;50.48;98419.66;4961710;28;20096;-83
2022/02/06 11:30:45;;;;;;;36.83;14.15;;;;;;;-0.97;49.84;98415.94;4997553;28;20046;-83
2022/02/06 11:33:11;;;;;;;42.70;15.17;;;;;;;-0.82;49.32;98415.22;4978750;28;20081;-89
2022/02/06 11:35:39;;;;;;;32.08;11.80;;;;;;;-1.04;49.02;98409.28;4968744;28;20285;-86
2022/02/06 11:44:26;;;;;;;43.33;13.88;;;;;;;-1.13;49.36;98414.97;4976305;28;20050;-82
2022/02/06 11:46:57;;;;;;;29.40;13.52;;;;;;;-1.32;49.13;98410.59;4992008;28;20495;-85
2022/02/06 11:49:23;;;;;;;26.70;11.52;;;;;;;-1.36;49.65;98414.28;4978613;28;20047;-88
2022/02/06 11:51:51;;;;;;;30.88;12.27;;;;;;;-1.59;49.58;98417.09;4978241;28;20136;-83
2022/02/06 11:54:29;;;;;;;25.40;12.02;;;;;;;-1.79;49.82;98411.00;4992079;28;20566;-87
2022/02/06 11:57:17;;;;;;;40.83;14.10;;;;;;;-1.84;50.27;98412.13;4991361;28;20039;-79
2022/02/06 12:00:05;;;;;;;30.48;13.40;;;;;;;-1.81;50.76;98418.06;4957279;28;20050;-85
2022/02/06 12:02:47;;;;;;;31.98;13.43;;;;;;;-1.59;49.89;98409.25;4953737;29;20061;-87
2022/02/06 12:05:31;;;;;;;32.17;13.98;;;;;;;-1.27;49.65;98418.25;4939018;28;20063;-93
2022/02/06 12:08:13;;;;;;;34.00;13.63;;;;;;;-1.25;49.46;98422.47;4976799;28;20462;-92
2022/02/06 12:11:08;;;;;;;27.27;12.20;;;;;;;-1.47;49.69;98414.78;4981296;28;20465;-90
2022/02/06 12:13:37;;;;;;;29.63;12.85;;;;;;;-1.40;49.57;98411.88;4978987;28;20046;-92
2022/02/06 12:16:05;;;;;;;29.30;14.15;;;;;;;-1.27;48.99;98416.47;4929834;28;20093;-92
2022/02/06 12:18:33;;;;;;;35.97;14.05;;;;;;;-1.32;49.44;98410.59;4976736;28;20059;-91
2022/02/06 12:21:09;;;;;;;43.78;15.85;;;;;;;-1.14;49.53;98429.84;4960162;28;20047;-93
2022/02/06 12:23:39;;;;;;;38.30;14.45;;;;;;;-1.14;49.56;98413.28;4941866;28;20134;-87
2022/02/06 12:26:30;;;;;;;41.38;13.98;;;;;;;-1.31;49.66;98428.03;4941784;28;20430;-87
2022/02/06 12:29:16;;;;;;;34.80;13.68;;;;;;;-1.29;49.19;98418.31;4957144;28;20046;-87
2022/02/06 12:31:56;;;;;;;35.80;15.32;;;;;;;-1.37;49.80;98427.47;4957339;28;20209;-87
2022/02/06 12:37:28;;;;;;;36.40;14.80;;;;;;;-1.48;49.88;98420.09;4950464;28;20050;-88
2022/02/06 12:39:57;;;;;;;38.55;16.45;;;;;;;-1.42;50.16;98425.06;4958686;28;20086;-88
2022/02/06 12:42:34;;;;;;;37.85;14.40;;;;;;;-1.49;50.17;98418.41;4928331;28;20042;-92
2022/02/06 12:45:02;;;;;;;28.92;14.02;;;;;;;-1.57;50.24;98420.53;4945311;28;20046;-91
2022/02/06 12:47:30;;;;;;;34.00;14.18;;;;;;;-1.66;50.68;98415.69;4975044;28;20104;-91
2022/02/06 12:49:56;;;;;;;32.65;15.50;;;;;;;-1.68;50.68;98428.88;5000058;28;20046;-84
2022/02/06 12:52:22;;;;;;;29.73;14.32;;;;;;;-1.79;51.05;98420.63;4981533;28;20058;-90
2022/02/06 12:54:48;;;;;;;32.97;12.63;;;;;;;-1.78;51.40;98423.19;4962122;28;20057;-90
2022/02/06 12:57:19;;;;;;;29.88;12.98;;;;;;;-1.84;51.15;98417.34;4961908;28;20117;-91
2022/02/06 12:59:45;;;;;;;32.83;13.10;;;;;;;-1.94;51.61;98416.94;4978414;28;20073;-90
2022/02/06 13:02:13;;;;;;;32.30;14.57;;;;;;;-1.88;51.73;98432.38;4992786;28;20050;-89
2022/02/06 13:04:43;;;;;;;36.38;14.85;;;;;;;-1.88;51.35;98431.50;4976696;28;20046;-92
2022/02/06 13:07:11;;;;;;;44.80;16.80;;;;;;;-1.93;51.46;98428.25;4977343;28;20053;-90
2022/02/06 13:09:44;;;;;;;29.92;13.85;;;;;;;-2.01;51.48;98441.69;4993003;28;20050;-88
2022/02/06 13:12:36;;;;;;;31.20;13.82;;;;;;;-1.99;52.00;98445.94;4977371;28;20038;-91
2022/02/06 13:22:54;;;;;;;57.70;14.77;;;;;;;-2.04;51.98;98453.13;4992740;28;20577;-90
2022/02/06 13:37:27;;;;;;;29.85;13.00;;;;;;;-2.05;51.92;98429.66;4983419;28;20058;-82
2022/02/06 13:40:05;;;;;;;28.35;11.65;;;;;;;-1.95;51.93;98446.66;4983337;28;20126;-80
2022/02/06 13:42:44;;;;;;;44.33;14.52;;;;;;;-1.96;51.90;98442.31;4985542;28;20042;-88
2022/02/06 13:45:14;;;;;;;26.67;12.38;;;;;;;-1.98;51.96;98447.63;4949959;28;20413;-84
2022/02/06 13:47:40;;;;;;;;;;;;;;;-2.06;52.46;98459.38;4961194;28;20529;-84
2022/02/06 13:50:14;;;;;;;33.85;13.55;;;;;;;-2.28;52.72;98438.50;4942020;28;19929;-90
2022/02/06 13:52:46;;;;;;;37.63;13.63;;;;;;;-2.24;52.76;98440.91;4942601;28;20090;-89
2022/02/06 13:55:13;;;;;;;28.10;10.50;;;;;;;-2.47;53.88;98451.50;4925687;28;20109;-86
2022/02/06 13:57:40;;;;;;;27.08;10.85;;;;;;;-2.76;54.57;98443.06;4919497;28;20038;-84
2022/02/06 14:00:10;;;;;;;33.15;13.07;;;;;;;-2.77;54.37;98467.53;4917886;28;20146;-79
2022/02/06 14:03:13;;;;;;;35.85;13.32;;;;;;;-2.85;54.22;98442.63;4954436;28;20043;-86
2022/02/06 14:05:51;;;;;;;30.67;12.95;;;;;;;-2.85;54.34;98443.47;4884720;29;20052;-79
2022/02/06 14:08:47;;;;;;;34.25;13.20;;;;;;;-2.62;54.09;98460.84;4889539;29;20040;-86
2022/02/06 14:11:32;;;;;;;29.13;13.80;;;;;;;-2.58;53.87;98466.78;4907439;29;20048;-83
2022/02/06 14:14:26;;;;;;;36.65;14.40;;;;;;;-2.42;53.24;98475.69;4934431;28;20063;-86
2022/02/06 14:16:56;;;;;;;37.80;15.52;;;;;;;-2.55;53.74;98456.22;4942868;29;20066;-83
2022/02/06 14:19:57;;;;;;;47.08;19.45;;;;;;;-2.35;53.75;98468.47;4902757;29;20542;-86
2022/02/06 14:22:45;;;;;;;42.30;16.13;;;;;;;-2.22;53.36;98480.09;4912639;29;20050;-88
2022/02/06 14:25:39;;;;;;;39.38;18.13;;;;;;;-2.30;53.60;98467.34;4943994;29;20589;-88